Time;durP1;ratioP1;P1;durP2;ratioP2;P2;SDS_P1;SDS_P2;PMS_P1;PMS_P2;Temp;Humidity;BMP_temperature;BMP_pressure;BME280_temperature;BME280_humidity;BME280_pressure;Samples;Min_cycle;Max_cycle;Signal;HPM_P1;HPM_P2
2023/01/24 00:00:51;;;;;;;57.70;23.52;;;0.50;99.90;;;;;;5075291;28;20037;-84
2023/01/24 00:03:17;;;;;;;52.95;25.88;;;0.50;99.90;;;;;;5073976;28;20021;-84
2023/01/24 00:05:45;;;;;;;50.95;22.05;;;0.50;99.90;;;;;;5075065;28;20028;-81
2023/01/24 00:08:12;;;;;;;53.88;23.98;;;0.50;99.90;;;;;;5074688;28;20028;-81
2023/01/24 00:10:38;;;;;;;56.85;24.65;;;0.50;99.90;;;;;;5074154;28;20391;-81
2023/01/24 00:13:04;;;;;;;56.28;22.95;;;0.50;99.90;;;;;;5074257;28;20091;-82
2023/01/24 00:15:30;;;;;;;55.97;23.25;;;0.50;99.90;;;;;;5073091;28;20112;-82
2023/01/24 00:17:55;;;;;;;49.05;22.13;;;0.50;99.90;;;;;;5073063;28;20059;-82
2023/01/24 00:20:21;;;;;;;48.05;22.35;;;0.50;99.90;;;;;;5074009;28;20052;-82
2023/01/24 00:22:47;;;;;;;49.15;20.67;;;0.50;99.90;;;;;;5074339;28;20071;-82
2023/01/24 00:25:12;;;;;;;55.97;21.23;;;0.50;99.90;;;;;;5072803;28;20470;-82
2023/01/24 00:27:38;;;;;;;45.45;21.33;;;0.50;99.90;;;;;;5072877;28;20103;-82
2023/01/24 00:30:05;;;;;;;53.05;23.60;;;0.60;99.90;;;;;;5072757;28;20036;-82
2023/01/24 00:32:31;;;;;;;48.85;22.48;;;0.50;99.90;;;;;;5074094;28;20016;-82
2023/01/24 00:34:57;;;;;;;48.95;23.48;;;0.60;99.90;;;;;;5073962;28;20400;-81
2023/01/24 00:37:23;;;;;;;43.90;21.75;;;0.60;99.90;;;;;;5072629;28;20021;-82
2023/01/24 00:39:48;;;;;;;60.08;22.38;;;0.60;99.90;;;;;;5073571;28;20037;-82
2023/01/24 00:42:14;;;;;;;54.38;22.83;;;0.50;99.90;;;;;;5073906;28;20059;-82
2023/01/24 00:44:39;;;;;;;41.97;18.73;;;0.50;99.90;;;;;;5073820;28;20034;-82
2023/01/24 00:47:05;;;;;;;53.50;21.42;;;0.50;99.90;;;;;;5072421;28;20021;-82
2023/01/24 00:49:30;;;;;;;48.38;22.17;;;0.50;99.90;;;;;;5072420;28;20062;-82
2023/01/24 00:51:56;;;;;;;43.38;19.70;;;0.60;99.90;;;;;;5073687;28;20024;-82
2023/01/24 00:54:22;;;;;;;48.53;21.55;;;0.60;99.90;;;;;;5072278;28;20024;-82
2023/01/24 00:56:47;;;;;;;57.15;23.30;;;0.60;99.90;;;;;;5072279;28;20107;-82
2023/01/24 00:59:13;;;;;;;54.85;23.35;;;0.60;99.90;;;;;;5072095;28;20040;-82
2023/01/24 01:01:39;;;;;;;51.75;22.88;;;0.50;99.90;;;;;;5072208;28;20017;-82
2023/01/24 01:04:05;;;;;;;54.75;22.65;;;0.50;99.90;;;;;;5073758;28;20031;-82
2023/01/24 01:06:30;;;;;;;50.60;22.42;;;0.50;99.90;;;;;;5073721;28;20107;-82
2023/01/24 01:08:56;;;;;;;46.90;22.38;;;0.50;99.90;;;;;;5072223;28;20378;-85
2023/01/24 01:11:22;;;;;;;46.75;21.50;;;0.50;99.90;;;;;;5072071;28;20017;-85
2023/01/24 01:13:48;;;;;;;49.67;23.13;;;0.60;99.90;;;;;;5072227;28;20551;-82
2023/01/24 01:16:19;;;;;;;51.33;22.77;;;0.50;99.90;;;;;;5072042;28;20017;-81
2023/01/24 01:18:46;;;;;;;40.78;21.02;;;0.50;99.90;;;;;;5071888;28;20048;-83
2023/01/24 01:21:14;;;;;;;50.63;22.70;;;0.50;99.90;;;;;;5072285;28;20478;-82
2023/01/24 01:23:39;;;;;;;56.53;22.95;;;0.50;99.90;;;;;;5072157;28;20569;-83
2023/01/24 01:26:07;;;;;;;48.67;21.33;;;0.50;99.90;;;;;;5073366;28;20108;-83
2023/01/24 01:28:33;;;;;;;50.38;22.75;;;0.50;99.90;;;;;;5071704;28;20029;-82
2023/01/24 01:30:59;;;;;;;55.83;22.08;;;0.50;99.90;;;;;;5071644;28;20020;-82
2023/01/24 01:33:25;;;;;;;52.85;22.15;;;0.50;99.90;;;;;;5073188;28;20035;-83
2023/01/24 01:35:51;;;;;;;51.47;21.90;;;0.50;99.90;;;;;;5071513;28;20063;-83
2023/01/24 01:38:17;;;;;;;48.97;22.02;;;0.50;99.90;;;;;;5071974;28;20434;-83
2023/01/24 01:40:43;;;;;;;54.40;22.65;;;0.50;99.90;;;;;;5071454;28;20123;-83
2023/01/24 01:43:13;;;;;;;50.00;22.20;;;0.50;99.90;;;;;;5071372;28;20082;-83
2023/01/24 01:45:46;;;;;;;51.75;23.77;;;0.50;99.90;;;;;;5071510;28;20046;-83
2023/01/24 01:48:42;;;;;;;59.22;24.02;;;0.50;99.90;;;;;;5071652;28;20020;-83
2023/01/24 01:51:25;;;;;;;45.53;18.75;;;0.50;99.90;;;;;;5072372;28;20025;-83
2023/01/24 01:53:57;;;;;;;;;;;0.50;99.90;;;;;;5073343;28;20021;-84
2023/01/24 01:56:30;;;;;;;47.58;20.92;;;0.50;99.90;;;;;;5072969;28;20380;-83
2023/01/24 01:59:01;;;;;;;62.17;23.17;;;0.60;99.90;;;;;;5072275;28;20386;-83
2023/01/24 02:01:27;;;;;;;57.33;24.27;;;0.50;99.90;;;;;;5071166;28;20020;-83
2023/01/24 02:04:07;;;;;;;48.08;19.05;;;0.50;99.90;;;;;;5072924;28;20028;-83
2023/01/24 02:06:58;;;;;;;53.53;21.92;;;0.50;99.90;;;;;;5071778;28;20055;-83
2023/01/24 02:09:28;;;;;;;48.28;20.70;;;0.50;99.90;;;;;;5071266;28;20029;-82
2023/01/24 02:11:57;;;;;;;47.22;21.80;;;0.50;99.90;;;;;;5072616;28;20024;-82
2023/01/24 02:17:08;;;;;;;40.05;18.80;;;0.50;99.90;;;;;;5072891;28;20086;-82
2023/01/24 02:20:05;;;;;;;45.22;19.55;;;0.50;99.90;;;;;;5072307;28;20052;-82
2023/01/24 02:22:58;;;;;;;47.88;22.50;;;0.50;99.90;;;;;;5072982;28;20025;-83
2023/01/24 02:25:39;;;;;;;52.90;20.88;;;0.50;99.90;;;;;;5072735;28;20033;-82
2023/01/24 02:28:06;;;;;;;47.92;19.45;;;0.50;99.90;;;;;;5071614;28;20056;-82
2023/01/24 02:30:32;;;;;;;48.00;21.92;;;0.50;99.90;;;;;;5072438;28;20033;-82
2023/01/24 02:32:57;;;;;;;51.13;22.02;;;0.60;99.90;;;;;;5072439;28;20025;-82
2023/01/24 02:35:25;;;;;;;45.95;20.45;;;0.50;99.90;;;;;;5071023;28;20024;-83
2023/01/24 02:37:51;;;;;;;50.35;20.88;;;0.50;99.90;;;;;;5072636;28;20021;-83
2023/01/24 02:40:17;;;;;;;46.05;19.70;;;0.50;99.90;;;;;;5072460;28;20036;-82
2023/01/24 02:42:43;;;;;;;51.53;20.95;;;0.50;99.90;;;;;;5072324;28;20500;-82
2023/01/24 02:45:21;;;;;;;46.58;21.17;;;0.50;99.90;;;;;;5071310;28;20029;-82
2023/01/24 02:47:49;;;;;;;45.33;21.23;;;0.60;99.90;;;;;;5072320;28;20369;-82
2023/01/24 02:50:16;;;;;;;42.80;18.23;;;0.50;99.90;;;;;;5072170;28;20486;-82
2023/01/24 02:55:26;;;;;;;42.25;17.77;;;0.50;99.90;;;;;;5072108;28;20133;-83
2023/01/24 02:58:07;;;;;;;40.15;19.15;;;0.50;99.90;;;;;;5072180;28;20049;-83
2023/01/24 03:00:39;;;;;;;42.00;16.77;;;0.50;99.90;;;;;;5070595;28;20550;-82
2023/01/24 03:03:06;;;;;;;42.13;19.37;;;0.60;99.90;;;;;;5074381;28;20064;-83
2023/01/24 03:08:16;;;;;;;42.10;19.50;;;0.50;99.90;;;;;;5075883;28;20124;-82
2023/01/24 03:10:42;;;;;;;43.30;17.60;;;0.50;99.90;;;;;;5074054;28;20074;-82
2023/01/24 03:35:00;;;;;;;37.28;16.20;;;0.50;99.90;;;;;;5075484;28;20035;-81
2023/01/24 03:40:13;;;;;;;31.48;14.27;;;0.50;99.90;;;;;;5075170;28;20043;-81
2023/01/24 03:42:48;;;;;;;37.15;16.13;;;0.50;99.90;;;;;;5073810;28;20017;-81
2023/01/24 03:45:29;;;;;;;34.53;14.93;;;0.50;99.90;;;;;;5075120;28;20066;-81
2023/01/24 03:47:58;;;;;;;38.70;16.58;;;0.50;99.90;;;;;;5075115;28;20025;-82
2023/01/24 03:53:22;;;;;;;36.20;15.25;;;0.60;99.90;;;;;;5074832;28;20036;-83
2023/01/24 03:55:54;;;;;;;29.80;13.88;;;0.60;99.90;;;;;;5074803;28;20070;-82
2023/01/24 03:58:21;;;;;;;34.80;15.35;;;0.50;99.90;;;;;;5074637;28;20021;-82
2023/01/24 04:00:47;;;;;;;41.92;16.48;;;0.50;99.90;;;;;;5074470;28;20218;-83
2023/01/24 04:03:12;;;;;;;29.38;13.95;;;0.50;99.90;;;;;;5074507;28;20484;-82
2023/01/24 04:05:38;;;;;;;37.53;16.75;;;0.50;99.90;;;;;;5074586;28;20067;-82
2023/01/24 04:08:04;;;;;;;39.30;16.35;;;0.50;99.90;;;;;;5074511;28;20025;-82
2023/01/24 04:10:30;;;;;;;39.22;18.23;;;0.50;99.90;;;;;;5074553;28;20033;-81
2023/01/24 04:12:56;;;;;;;36.45;16.00;;;0.50;99.90;;;;;;5074478;28;20024;-82
2023/01/24 04:15:25;;;;;;;34.60;16.38;;;0.50;99.90;;;;;;5073502;28;20382;-82
2023/01/24 04:17:51;;;;;;;41.20;16.20;;;0.50;99.90;;;;;;5074617;28;20103;-82
2023/01/24 04:20:17;;;;;;;34.40;14.98;;;0.50;99.90;;;;;;5076123;28;20143;-81
2023/01/24 04:22:42;;;;;;;40.55;16.10;;;0.50;99.90;;;;;;5076312;28;20023;-86
2023/01/24 04:25:09;;;;;;;34.78;15.52;;;0.50;99.90;;;;;;5094678;28;20043;-82
2023/01/24 04:27:36;;;;;;;32.40;13.52;;;0.50;99.90;;;;;;5076509;28;20389;-82
2023/01/24 04:30:06;;;;;;;28.02;14.00;;;0.50;99.90;;;;;;5076048;28;20016;-86
2023/01/24 04:32:31;;;;;;;26.63;12.35;;;0.50;99.90;;;;;;5076155;28;20024;-84
2023/01/24 04:34:57;;;;;;;24.60;12.38;;;0.50;99.90;;;;;;5094336;28;20362;-83
2023/01/24 04:37:23;;;;;;;24.92;13.43;;;0.50;99.90;;;;;;5075989;28;20055;-84
2023/01/24 04:39:48;;;;;;;22.13;11.65;;;0.50;99.90;;;;;;5093921;28;20028;-85
2023/01/24 04:42:14;;;;;;;26.33;12.10;;;0.50;99.90;;;;;;5075543;28;20124;-84
2023/01/24 04:44:40;;;;;;;21.65;9.98;;;0.50;99.90;;;;;;5076154;28;20024;-84
2023/01/24 04:47:05;;;;;;;30.10;11.93;;;0.50;99.90;;;;;;5075919;28;20054;-83
2023/01/24 04:49:31;;;;;;;23.58;11.25;;;0.50;99.90;;;;;;5093993;28;20062;-83
2023/01/24 04:51:56;;;;;;;27.85;13.55;;;0.50;99.90;;;;;;5075809;28;20132;-83
2023/01/24 04:54:22;;;;;;;21.88;11.40;;;0.50;99.90;;;;;;5093992;28;20025;-83
2023/01/24 04:56:47;;;;;;;23.95;10.57;;;0.50;99.90;;;;;;5093897;28;20504;-83
2023/01/24 04:59:13;;;;;;;21.92;12.23;;;0.50;99.90;;;;;;5075603;28;20038;-82
2023/01/24 05:01:39;;;;;;;24.00;11.98;;;0.50;99.90;;;;;;5075621;28;20026;-83
2023/01/24 05:04:05;;;;;;;22.63;11.13;;;0.60;99.90;;;;;;5075563;28;20024;-83
2023/01/24 05:06:32;;;;;;;21.73;10.82;;;0.50;99.90;;;;;;5075591;28;20028;-82
2023/01/24 05:08:58;;;;;;;23.33;12.07;;;0.50;99.90;;;;;;5075479;28;20024;-82
2023/01/24 05:11:24;;;;;;;21.70;11.23;;;0.50;99.90;;;;;;5092361;28;20123;-83
2023/01/24 05:13:50;;;;;;;27.63;11.20;;;0.60;99.90;;;;;;5093532;28;20532;-82
2023/01/24 05:16:16;;;;;;;28.67;13.10;;;0.60;99.90;;;;;;5093557;28;20365;-83
2023/01/24 05:18:42;;;;;;;27.65;11.80;;;0.60;99.90;;;;;;5087271;28;20052;-82
2023/01/24 05:21:16;;;;;;;23.30;12.05;;;0.60;99.90;;;;;;5073188;28;20077;-82
2023/01/24 05:23:42;;;;;;;29.15;12.40;;;0.60;99.90;;;;;;5071945;28;20604;-83
2023/01/24 05:26:09;;;;;;;24.13;13.05;;;0.60;99.90;;;;;;5071019;28;20071;-84
2023/01/24 05:28:35;;;;;;;30.55;12.77;;;0.60;99.90;;;;;;5071774;28;20508;-82
2023/01/24 05:31:03;;;;;;;27.05;12.88;;;0.60;99.90;;;;;;5072987;28;20042;-83
2023/01/24 05:33:29;;;;;;;25.73;12.00;;;0.60;99.90;;;;;;5071939;28;20020;-82
2023/01/24 05:35:59;;;;;;;28.58;12.48;;;0.60;99.90;;;;;;5071938;28;20024;-83
2023/01/24 05:38:25;;;;;;;30.48;12.32;;;0.60;99.90;;;;;;5072121;28;20028;-85
2023/01/24 05:40:50;;;;;;;28.15;13.65;;;0.60;99.90;;;;;;5072622;28;20397;-82
2023/01/24 05:43:16;;;;;;;30.20;13.70;;;0.60;99.90;;;;;;5072969;28;20040;-85
2023/01/24 05:45:42;;;;;;;30.70;12.25;;;0.60;99.90;;;;;;5073207;28;20033;-81
2023/01/24 05:48:09;;;;;;;21.85;10.82;;;0.60;99.90;;;;;;5073248;28;20098;-81
2023/01/24 05:50:35;;;;;;;27.10;12.57;;;0.60;99.90;;;;;;5073390;28;20028;-81
2023/01/24 05:53:02;;;;;;;33.58;13.20;;;0.60;99.90;;;;;;5071939;28;20363;-83
2023/01/24 05:55:28;;;;;;;29.25;13.00;;;0.60;99.90;;;;;;5073445;28;20017;-83
2023/01/24 05:57:54;;;;;;;34.88;12.73;;;0.60;99.90;;;;;;5071651;28;20086;-87
2023/01/24 06:00:20;;;;;;;33.60;13.30;;;0.60;99.90;;;;;;5071593;28;20033;-82
2023/01/24 06:02:45;;;;;;;38.53;14.48;;;0.60;99.90;;;;;;5072515;28;20024;-82
2023/01/24 06:05:11;;;;;;;36.92;14.85;;;0.60;99.90;;;;;;5071596;28;20025;-82
2023/01/24 06:07:37;;;;;;;44.45;17.58;;;0.60;99.90;;;;;;5072628;28;20497;-82
2023/01/24 06:10:03;;;;;;;49.88;18.45;;;0.60;99.90;;;;;;5072418;28;20028;-82
2023/01/24 06:12:28;;;;;;;49.60;16.30;;;0.60;99.90;;;;;;5071216;28;20025;-83
2023/01/24 06:14:54;;;;;;;57.08;20.98;;;0.60;99.90;;;;;;5071409;28;20348;-83
2023/01/24 06:17:19;;;;;;;48.17;16.70;;;0.60;99.90;;;;;;5072343;28;20112;-83
2023/01/24 06:19:45;;;;;;;39.72;16.80;;;0.60;99.90;;;;;;5072051;28;20437;-83
2023/01/24 06:22:39;;;;;;;37.80;17.50;;;0.60;99.90;;;;;;5071154;28;20085;-83
2023/01/24 06:25:12;;;;;;;49.58;18.63;;;0.60;99.90;;;;;;5072451;28;20035;-83
2023/01/24 06:27:38;;;;;;;49.80;16.92;;;0.60;99.90;;;;;;5072468;28;20474;-83
2023/01/24 06:30:04;;;;;;;44.90;15.38;;;0.70;99.90;;;;;;5072257;28;20078;-83
2023/01/24 06:32:39;;;;;;;46.38;15.23;;;0.60;99.90;;;;;;5072004;28;20025;-83
2023/01/24 06:35:34;;;;;;;40.28;14.90;;;0.60;99.90;;;;;;5070807;28;20127;-82
2023/01/24 06:38:00;;;;;;;42.25;14.95;;;0.70;99.90;;;;;;5074638;28;20422;-82
2023/01/24 06:40:26;;;;;;;53.75;15.60;;;0.60;99.90;;;;;;5076012;28;20127;-82
2023/01/24 06:42:53;;;;;;;52.90;18.95;;;0.60;99.90;;;;;;5075772;28;20099;-80
2023/01/24 06:45:20;;;;;;;46.15;14.85;;;0.60;99.90;;;;;;5075706;28;20048;-80
2023/01/24 06:47:45;;;;;;;44.95;16.73;;;0.60;99.90;;;;;;5076046;28;20033;-81
2023/01/24 06:50:19;;;;;;;56.53;20.63;;;0.60;99.90;;;;;;5074643;28;20138;-82
2023/01/24 06:52:46;;;;;;;51.85;19.30;;;0.60;99.90;;;;;;5079448;28;20386;-82
2023/01/24 06:55:12;;;;;;;51.75;17.15;;;0.60;99.90;;;;;;5074818;28;20016;-82
2023/01/24 06:57:38;;;;;;;58.13;19.35;;;0.60;99.90;;;;;;5074648;28;20082;-82
2023/01/24 07:00:04;;;;;;;69.82;17.80;;;0.60;99.90;;;;;;5074451;28;20040;-82
2023/01/24 07:02:30;;;;;;;58.55;19.20;;;0.50;99.90;;;;;;5073955;28;20016;-82
2023/01/24 07:04:56;;;;;;;93.13;20.27;;;0.50;99.90;;;;;;5074431;28;20077;-83
2023/01/24 07:07:21;;;;;;;88.32;21.70;;;0.50;99.90;;;;;;5074665;28;20466;-82
2023/01/24 07:09:47;;;;;;;124.10;36.30;;;0.60;99.90;;;;;;5073802;28;20025;-82
2023/01/24 07:12:12;;;;;;;90.00;28.17;;;0.60;99.90;;;;;;5074667;28;20021;-83
2023/01/24 07:14:38;;;;;;;86.13;26.08;;;0.50;99.90;;;;;;5073765;28;20049;-82
2023/01/24 07:17:04;;;;;;;84.05;23.63;;;0.50;99.90;;;;;;5074026;28;20021;-82
2023/01/24 07:19:30;;;;;;;67.25;19.58;;;0.50;99.90;;;;;;5072578;28;20048;-82
2023/01/24 07:21:56;;;;;;;74.40;23.27;;;0.50;99.90;;;;;;5072581;28;20017;-82
2023/01/24 07:24:29;;;;;;;72.82;20.58;;;0.50;99.90;;;;;;5072626;28;20032;-82
2023/01/24 07:26:55;;;;;;;76.40;22.63;;;0.50;99.90;;;;;;5070471;28;20025;-83
2023/01/24 07:29:22;;;;;;;91.38;23.95;;;0.50;99.90;;;;;;5073182;28;20025;-82
2023/01/24 07:31:48;;;;;;;111.75;25.80;;;0.50;99.90;;;;;;5075315;28;20492;-82
2023/01/24 07:34:15;;;;;;;80.03;22.63;;;0.50;99.90;;;;;;5073793;28;20027;-82
2023/01/24 07:36:42;;;;;;;90.68;20.25;;;0.50;99.90;;;;;;5073038;28;20016;-82
2023/01/24 07:39:07;;;;;;;64.32;18.83;;;0.50;99.90;;;;;;5072826;28;20024;-82
2023/01/24 07:41:35;;;;;;;96.32;22.20;;;0.50;99.90;;;;;;5073899;28;20042;-84
2023/01/24 07:44:04;;;;;;;60.00;18.80;;;0.50;99.90;;;;;;5073324;28;20446;-85
2023/01/24 07:46:33;;;;;;;70.68;19.08;;;0.50;99.90;;;;;;5072497;28;20115;-85
2023/01/24 07:48:59;;;;;;;58.30;17.85;;;0.50;99.90;;;;;;5073470;28;20028;-85
2023/01/24 07:51:25;;;;;;;49.35;16.55;;;0.50;99.90;;;;;;5073534;28;20086;-85
2023/01/24 07:53:51;;;;;;;83.32;20.15;;;0.50;99.90;;;;;;5073190;28;20056;-85
2023/01/24 07:56:17;;;;;;;80.82;20.95;;;0.50;99.90;;;;;;5073674;28;20036;-84
2023/01/24 07:58:43;;;;;;;72.97;19.63;;;0.50;99.90;;;;;;5073866;28;20054;-85
2023/01/24 08:01:08;;;;;;;86.57;22.52;;;0.50;99.90;;;;;;5074205;28;20067;-84
2023/01/24 08:03:34;;;;;;;65.32;18.90;;;0.50;99.90;;;;;;5072761;28;20212;-85
2023/01/24 08:06:03;;;;;;;88.68;19.95;;;0.50;99.90;;;;;;5073522;28;20025;-84
2023/01/24 08:08:28;;;;;;;72.93;19.80;;;0.50;99.90;;;;;;5074492;28;20402;-85
2023/01/24 08:10:54;;;;;;;67.45;20.33;;;0.50;99.90;;;;;;5073397;28;20020;-85
2023/01/24 08:13:21;;;;;;;73.85;20.17;;;0.50;99.90;;;;;;5074344;28;20428;-84
2023/01/24 08:15:47;;;;;;;81.63;22.00;;;0.50;99.90;;;;;;5089901;28;20359;-83
2023/01/24 08:18:13;;;;;;;83.38;23.05;;;0.50;99.90;;;;;;5071679;28;20024;-84
2023/01/24 08:20:38;;;;;;;71.45;23.58;;;0.50;99.90;;;;;;5072497;28;20032;-84
2023/01/24 08:23:04;;;;;;;93.25;22.70;;;0.50;99.90;;;;;;5073131;28;20463;-85
2023/01/24 08:25:31;;;;;;;69.97;21.40;;;0.50;99.90;;;;;;5073070;28;20036;-82
2023/01/24 08:27:57;;;;;;;80.43;23.05;;;0.50;99.90;;;;;;5074399;28;20381;-84
2023/01/24 08:30:23;;;;;;;86.20;24.50;;;0.50;99.90;;;;;;5068055;28;20047;-82
2023/01/24 08:32:57;;;;;;;89.20;24.98;;;0.50;99.90;;;;;;5071643;28;20021;-82
2023/01/24 08:35:23;;;;;;;104.60;23.77;;;0.50;99.90;;;;;;5068999;28;20017;-82
2023/01/24 08:37:48;;;;;;;108.15;25.42;;;0.50;99.90;;;;;;5070708;28;20070;-83
2023/01/24 08:40:14;;;;;;;89.32;25.83;;;0.50;99.90;;;;;;5071288;28;20044;-83
2023/01/24 08:42:39;;;;;;;66.05;20.42;;;0.60;99.90;;;;;;5072428;28;20048;-83
2023/01/24 08:45:05;;;;;;;84.15;23.40;;;0.60;99.90;;;;;;5070599;28;20052;-83
2023/01/24 08:47:31;;;;;;;82.40;21.73;;;0.50;99.90;;;;;;5070353;28;20462;-83
2023/01/24 08:49:57;;;;;;;83.90;20.27;;;0.50;99.90;;;;;;5069455;28;20047;-84
2023/01/24 08:52:22;;;;;;;71.45;20.77;;;0.60;99.90;;;;;;5068941;28;20521;-83
2023/01/24 08:54:48;;;;;;;69.10;21.10;;;0.60;99.90;;;;;;5069801;28;20370;-83
2023/01/24 08:57:14;;;;;;;72.65;22.30;;;0.60;99.90;;;;;;5067798;28;20024;-83
2023/01/24 08:59:39;;;;;;;65.60;21.02;;;0.60;99.90;;;;;;5068198;28;20378;-83
2023/01/24 09:02:05;;;;;;;79.18;26.52;;;0.60;99.90;;;;;;5069380;28;20474;-83
2023/01/24 09:04:31;;;;;;;89.15;27.52;;;0.60;99.90;;;;;;5069525;28;20020;-83
2023/01/24 09:06:56;;;;;;;73.32;22.05;;;0.60;99.90;;;;;;5070674;28;20027;-83
2023/01/24 09:09:24;;;;;;;83.68;22.23;;;0.60;99.90;;;;;;5071322;28;20028;-83
2023/01/24 09:11:49;;;;;;;139.65;53.47;;;0.60;99.90;;;;;;5071312;28;20036;-83
2023/01/24 09:14:15;;;;;;;84.15;25.77;;;0.60;99.90;;;;;;5068751;28;20410;-82
2023/01/24 09:16:40;;;;;;;129.50;56.95;;;0.60;99.90;;;;;;5071562;28;20374;-83
2023/01/24 09:19:07;;;;;;;107.95;32.45;;;0.70;99.90;;;;;;5069749;28;20105;-82
2023/01/24 09:21:33;;;;;;;86.45;31.77;;;0.70;99.90;;;;;;5071480;28;20019;-83
2023/01/24 09:23:59;;;;;;;139.63;59.28;;;0.70;99.90;;;;;;5073003;28;20025;-82
2023/01/24 09:26:25;;;;;;;158.70;57.95;;;0.70;99.90;;;;;;5072203;28;20039;-83
2023/01/24 09:28:50;;;;;;;323.60;124.13;;;0.70;99.90;;;;;;5071448;28;20025;-83
2023/01/24 09:31:16;;;;;;;147.20;52.33;;;0.70;99.90;;;;;;5071743;28;20588;-83
2023/01/24 09:33:41;;;;;;;147.23;44.85;;;0.70;99.90;;;;;;5072972;28;20059;-82
2023/01/24 09:36:07;;;;;;;159.75;44.42;;;0.70;99.90;;;;;;5071836;28;20055;-83
2023/01/24 09:38:34;;;;;;;181.45;55.92;;;0.70;99.90;;;;;;5071396;28;20029;-82
2023/01/24 09:41:09;;;;;;;215.55;66.88;;;0.60;99.90;;;;;;5071643;28;20068;-82
2023/01/24 09:43:38;;;;;;;109.93;39.78;;;0.60;99.90;;;;;;5071792;28;20608;-82
2023/01/24 09:46:28;;;;;;;100.30;30.38;;;0.60;99.90;;;;;;5071496;28;20489;-83
2023/01/24 09:49:26;;;;;;;146.18;40.17;;;0.60;99.90;;;;;;5073179;28;20044;-82
2023/01/24 09:51:53;;;;;;;102.53;34.42;;;0.60;99.90;;;;;;5070927;28;20032;-83
2023/01/24 09:54:33;;;;;;;90.00;26.45;;;0.60;99.90;;;;;;5072863;28;20845;-84
2023/01/24 09:57:03;;;;;;;110.65;29.17;;;0.60;99.90;;;;;;5070840;28;20057;-84
2023/01/24 09:59:41;;;;;;;90.75;30.23;;;0.60;99.90;;;;;;5069681;28;20064;-84
2023/01/24 10:02:18;;;;;;;87.53;26.00;;;0.60;99.90;;;;;;5083461;28;20104;-84
2023/01/24 10:04:46;;;;;;;223.98;70.40;;;0.70;99.90;;;;;;5051756;28;20052;-82
2023/01/24 10:07:24;;;;;;;189.77;60.95;;;0.70;99.90;;;;;;5051561;28;20021;-82
2023/01/24 10:10:10;;;;;;;434.73;133.90;;;0.70;99.90;;;;;;5051443;28;20538;-82
2023/01/24 10:13:07;;;;;;;443.73;131.55;;;0.70;99.90;;;;;;5053354;28;20469;-82
2023/01/24 10:15:58;;;;;;;149.82;44.67;;;0.70;99.90;;;;;;5055556;28;20402;-82
2023/01/24 10:18:46;;;;;;;82.03;26.98;;;0.70;99.90;;;;;;5049510;28;20055;-82
2023/01/24 10:21:17;;;;;;;100.47;33.45;;;0.70;99.90;;;;;;5076727;28;20044;-82
2023/01/24 10:23:55;;;;;;;71.53;24.08;;;0.70;99.90;;;;;;5075629;28;20047;-82
2023/01/24 10:26:41;;;;;;;174.13;62.92;;;0.70;99.90;;;;;;5076564;28;20031;-82
2023/01/24 10:29:21;;;;;;;45.97;20.27;;;0.80;99.90;;;;;;5076569;28;20556;-82
2023/01/24 10:32:01;;;;;;;39.03;14.02;;;0.80;99.90;;;;;;5075255;28;20062;-82
2023/01/24 10:34:34;;;;;;;40.08;16.55;;;0.80;99.90;;;;;;5076489;28;20021;-82
2023/01/24 10:37:08;;;;;;;41.50;18.45;;;0.80;99.90;;;;;;5075230;28;20025;-83
2023/01/24 10:39:34;;;;;;;36.22;15.43;;;0.80;99.90;;;;;;5075184;28;20034;-83
2023/01/24 10:42:00;;;;;;;31.88;16.15;;;0.80;99.90;;;;;;5075216;28;20031;-82
2023/01/24 10:44:33;;;;;;;33.22;15.13;;;0.80;99.90;;;;;;5075105;28;20024;-82
2023/01/24 10:47:37;;;;;;;31.42;14.93;;;0.90;99.90;;;;;;5076231;28;20074;-83
2023/01/24 10:50:11;;;;;;;32.17;16.30;;;0.90;99.90;;;;;;5076008;28;20103;-82
2023/01/24 10:52:37;;;;;;;34.83;16.05;;;0.90;99.90;;;;;;5076203;28;20428;-82
2023/01/24 10:55:29;;;;;;;27.48;15.25;;;0.90;99.90;;;;;;5074781;28;20024;-82
2023/01/24 10:57:55;;;;;;;36.87;16.03;;;0.90;99.90;;;;;;5074783;28;20028;-82
2023/01/24 11:00:33;;;;;;;40.17;18.35;;;1.00;99.90;;;;;;5075728;28;20074;-82
2023/01/24 11:03:04;;;;;;;36.08;16.08;;;1.00;99.90;;;;;;5075869;28;20020;-82
2023/01/24 11:05:47;;;;;;;43.35;16.88;;;1.10;99.90;;;;;;5075018;28;20070;-82
2023/01/24 11:08:34;;;;;;;39.72;16.58;;;1.00;99.90;;;;;;5074840;28;20024;-82
2023/01/24 11:11:00;;;;;;;38.75;14.75;;;1.10;99.90;;;;;;5074472;28;20021;-83
2023/01/24 11:13:35;;;;;;;36.63;14.18;;;1.10;99.90;;;;;;5075645;28;20023;-83
2023/01/24 11:16:14;;;;;;;37.10;15.80;;;1.10;99.90;;;;;;5074329;28;20111;-82
2023/01/24 11:18:59;;;;;;;55.28;18.10;;;1.00;99.90;;;;;;5074151;28;20060;-82
2023/01/24 11:21:25;;;;;;;40.83;17.45;;;1.00;99.90;;;;;;5074210;28;20056;-82
2023/01/24 11:24:06;;;;;;;46.65;17.23;;;1.00;99.90;;;;;;5073137;28;20024;-83
2023/01/24 11:26:36;;;;;;;44.30;19.30;;;1.00;99.90;;;;;;5074487;28;20039;-83
2023/01/24 11:29:15;;;;;;;31.88;16.27;;;1.00;99.90;;;;;;5075596;28;20104;-82
2023/01/24 11:31:47;;;;;;;26.75;12.77;;;1.00;99.90;;;;;;5068451;28;20348;-82
2023/01/24 11:34:40;;;;;;;26.17;13.95;;;1.00;99.90;;;;;;5052840;28;20033;-82
2023/01/24 11:37:34;;;;;;;25.35;12.15;;;1.00;99.90;;;;;;5054078;28;20471;-82
2023/01/24 11:40:24;;;;;;;26.17;13.90;;;1.00;99.90;;;;;;5054310;28;20065;-82
2023/01/24 11:42:59;;;;;;;28.52;13.77;;;1.00;99.90;;;;;;5069250;28;20029;-82
2023/01/24 11:45:35;;;;;;;28.95;15.35;;;1.00;99.90;;;;;;5053038;28;20491;-82
2023/01/24 11:48:08;;;;;;;34.22;14.65;;;1.10;99.90;;;;;;5052623;28;20029;-82
2023/01/24 11:50:46;;;;;;;33.95;15.38;;;1.10;99.90;;;;;;5054364;28;20013;-82
2023/01/24 11:53:32;;;;;;;35.40;14.93;;;1.20;99.90;;;;;;5063051;28;20033;-82
2023/01/24 11:56:12;;;;;;;34.88;14.55;;;1.10;99.90;;;;;;5073910;28;20059;-82
2023/01/24 11:59:09;;;;;;;31.98;14.05;;;1.10;99.90;;;;;;5072790;28;20033;-83
2023/01/24 12:01:44;;;;;;;31.33;15.07;;;1.00;99.90;;;;;;5073056;28;20077;-83
2023/01/24 12:04:50;;;;;;;41.08;16.35;;;1.00;99.90;;;;;;5073604;28;20032;-82
2023/01/24 12:07:40;;;;;;;32.33;13.63;;;1.00;99.90;;;;;;5105299;28;20032;-82
2023/01/24 12:10:15;;;;;;;32.20;13.82;;;1.00;99.90;;;;;;5073505;28;20035;-82
2023/01/24 12:12:46;;;;;;;33.80;13.35;;;1.00;99.90;;;;;;5073609;28;20047;-82
2023/01/24 12:15:23;;;;;;;26.30;11.05;;;0.90;99.90;;;;;;5073733;28;20021;-82
2023/01/24 12:18:04;;;;;;;26.75;12.30;;;0.90;99.90;;;;;;5072265;28;20040;-82
2023/01/24 12:20:41;;;;;;;22.52;10.75;;;0.90;99.90;;;;;;5055789;28;20043;-82
2023/01/24 12:23:22;;;;;;;17.40;9.75;;;0.90;99.90;;;;;;5063741;28;20041;-83
2023/01/24 12:25:53;;;;;;;21.13;9.50;;;0.90;99.90;;;;;;5053753;28;20029;-83
2023/01/24 12:28:36;;;;;;;22.95;10.65;;;0.90;99.90;;;;;;5035351;28;20112;-83
2023/01/24 12:31:06;;;;;;;19.80;11.00;;;0.90;99.90;;;;;;5035482;28;20075;-83
2023/01/24 12:33:49;;;;;;;25.08;11.60;;;0.90;99.90;;;;;;5053146;28;20029;-83
2023/01/24 12:36:47;;;;;;;24.05;12.63;;;0.90;99.90;;;;;;5035257;28;20029;-83
2023/01/24 12:39:30;;;;;;;32.58;15.50;;;0.90;99.90;;;;;;5052730;28;20067;-83
2023/01/24 12:42:12;;;;;;;33.63;13.57;;;0.90;99.90;;;;;;5053015;28;20035;-85
2023/01/24 12:45:02;;;;;;;37.97;16.13;;;0.80;99.90;;;;;;5053304;28;20120;-85
2023/01/24 12:47:45;;;;;;;31.30;13.23;;;0.80;99.90;;;;;;5053480;28;20017;-85
2023/01/24 12:50:22;;;;;;;66.78;16.75;;;0.80;99.90;;;;;;5052357;28;20051;-86
2023/01/24 12:53:10;;;;;;;45.30;15.70;;;0.80;99.90;;;;;;5063717;28;20375;-86
2023/01/24 12:55:52;;;;;;;39.50;15.70;;;0.80;99.90;;;;;;5072818;28;20424;-83
2023/01/24 12:58:29;;;;;;;37.20;14.45;;;0.80;99.90;;;;;;5072567;28;20041;-82
2023/01/24 13:01:08;;;;;;;41.75;15.55;;;0.80;99.90;;;;;;5072564;28;20037;-81
2023/01/24 13:03:48;;;;;;;36.33;14.00;;;0.70;99.90;;;;;;5054529;28;20029;-83
2023/01/24 13:06:25;;;;;;;47.60;18.70;;;0.70;99.90;;;;;;5054641;28;20553;-82
2023/01/24 13:09:10;;;;;;;32.47;14.02;;;0.70;99.90;;;;;;5054386;28;20105;-82
2023/01/24 13:11:48;;;;;;;37.50;16.58;;;0.70;99.90;;;;;;5054660;28;20371;-83
2023/01/24 13:14:23;;;;;;;50.53;18.10;;;0.80;99.90;;;;;;5072240;28;20025;-82
2023/01/24 13:17:19;;;;;;;45.30;18.48;;;0.80;99.90;;;;;;5054729;28;20082;-81
2023/01/24 13:20:09;;;;;;;43.03;17.42;;;0.80;99.90;;;;;;5068601;28;20036;-82
2023/01/24 13:22:58;;;;;;;49.67;15.10;;;0.70;99.90;;;;;;5092099;28;20031;-83
2023/01/24 13:25:42;;;;;;;40.35;15.23;;;0.70;99.90;;;;;;5092335;28;20032;-82
2023/01/24 13:28:22;;;;;;;33.22;12.38;;;0.80;99.90;;;;;;5074314;28;20036;-82
2023/01/24 13:30:57;;;;;;;32.95;12.98;;;0.70;99.90;;;;;;5074924;28;20024;-83